Time;durP1;ratioP1;P1;durP2;ratioP2;P2;SDS_P1;SDS_P2;PMS_P1;PMS_P2;Temp;Humidity;BMP_temperature;BMP_pressure;BME280_temperature;BME280_humidity;BME280_pressure;Samples;Min_cycle;Max_cycle;Signal;HPM_P1;HPM_P2
2021/03/25 00:01:58;;;;;;;84.82;47.92;;;;;;;1.71;80.97;101126.78;5053599;28;20037;-67
2021/03/25 00:04:24;;;;;;;93.22;50.55;;;;;;;1.71;80.93;101131.13;5053349;28;20183;-67
2021/03/25 00:06:52;;;;;;;84.70;47.03;;;;;;;1.72;80.28;101128.56;5053193;28;20098;-67
2021/03/25 00:09:21;;;;;;;85.38;49.70;;;;;;;1.62;80.15;101129.03;5053255;28;20510;-67
2021/03/25 00:11:47;;;;;;;88.13;47.55;;;;;;;1.61;80.38;101118.56;5053345;28;20048;-67
2021/03/25 00:14:12;;;;;;;90.65;49.80;;;;;;;1.64;79.97;101123.88;5053110;28;20056;-67
2021/03/25 00:16:37;;;;;;;79.18;47.17;;;;;;;1.63;79.70;101120.41;5052983;28;20083;-67
2021/03/25 00:19:06;;;;;;;91.88;50.47;;;;;;;1.62;80.04;101118.59;5053183;28;20040;-67
2021/03/25 00:21:31;;;;;;;73.22;42.92;;;;;;;1.58;79.69;101127.13;5053156;28;20082;-67
2021/03/25 00:23:56;;;;;;;75.35;44.88;;;;;;;1.54;79.61;101114.81;5051793;28;20253;-67
2021/03/25 00:26:22;;;;;;;75.45;43.47;;;;;;;1.52;79.59;101108.69;5052423;28;20033;-67
2021/03/25 00:28:47;;;;;;;78.23;43.63;;;;;;;1.49;79.00;101117.25;5052093;28;20478;-67
2021/03/25 00:31:12;;;;;;;81.97;48.28;;;;;;;1.43;79.64;101117.00;5052797;28;20450;-67
2021/03/25 00:33:38;;;;;;;77.68;45.35;;;;;;;1.42;79.14;101122.16;5053010;28;20035;-67
2021/03/25 00:36:03;;;;;;;73.10;42.70;;;;;;;1.38;79.50;101115.03;5052574;28;20037;-67
2021/03/25 00:38:28;;;;;;;84.35;46.25;;;;;;;1.36;79.14;101121.88;5052798;28;20067;-67
2021/03/25 00:40:54;;;;;;;76.97;42.77;;;;;;;1.34;79.67;101107.94;5052630;28;20048;-67
2021/03/25 00:43:22;;;;;;;66.50;42.17;;;;;;;1.36;79.77;101117.56;5052671;28;20037;-67
2021/03/25 00:45:49;;;;;;;82.63;44.63;;;;;;;1.33;79.04;101101.84;5052380;28;20033;-67
2021/03/25 00:48:17;;;;;;;68.90;42.30;;;;;;;1.33;79.38;101101.84;5052514;28;20032;-67
2021/03/25 00:50:49;;;;;;;82.05;46.88;;;;;;;1.35;79.68;101101.91;5052536;28;20059;-67
2021/03/25 00:53:21;;;;;;;73.80;43.60;;;;;;;1.34;79.48;101100.13;5052554;28;20488;-67
2021/03/25 00:55:46;;;;;;;82.75;45.70;;;;;;;1.32;80.67;101107.88;5052080;28;20279;-67
2021/03/25 00:58:12;;;;;;;76.87;43.83;;;;;;;1.33;80.01;101100.97;5052398;28;20118;-67
2021/03/25 01:00:40;;;;;;;80.13;44.57;;;;;;;1.28;80.03;101092.97;5052360;28;20158;-67
2021/03/25 01:03:07;;;;;;;80.87;45.93;;;;;;;1.26;79.66;101095.53;5050967;28;20079;-67
2021/03/25 01:05:33;;;;;;;79.53;44.77;;;;;;;1.23;80.00;101098.00;5052017;28;20029;-67
2021/03/25 01:07:58;;;;;;;76.07;42.50;;;;;;;1.17;79.80;101095.13;5052178;28;20408;-67
2021/03/25 01:10:30;;;;;;;93.70;50.70;;;;;;;1.18;79.20;101101.22;5052123;28;20072;-67
2021/03/25 01:12:59;;;;;;;73.60;39.72;;;;;;;1.18;79.18;101099.53;5050935;28;20047;-67
2021/03/25 01:15:25;;;;;;;80.40;44.93;;;;;;;1.16;78.94;101095.97;5051845;28;20087;-67
2021/03/25 01:17:55;;;;;;;75.93;44.90;;;;;;;1.16;79.45;101092.50;5052319;28;20035;-67
2021/03/25 01:20:33;;;;;;;65.93;41.60;;;;;;;1.14;79.59;101091.53;5050731;28;20037;-67
2021/03/25 01:23:00;;;;;;;70.03;41.60;;;;;;;1.17;79.03;101089.06;5050694;28;20451;-67
2021/03/25 01:25:29;;;;;;;66.83;40.60;;;;;;;1.18;79.03;101091.72;5051781;28;20668;-67
2021/03/25 01:27:55;;;;;;;76.87;42.07;;;;;;;1.19;78.59;101088.28;5050640;28;20059;-67
2021/03/25 01:30:22;;;;;;;68.30;40.07;;;;;;;1.17;79.17;101094.25;5067166;28;20040;-67
2021/03/25 01:32:48;;;;;;;72.95;41.47;;;;;;;1.11;78.82;101094.91;5050638;28;20087;-68
2021/03/25 01:35:15;;;;;;;83.47;47.00;;;;;;;1.09;78.97;101088.75;5051329;28;20029;-67
2021/03/25 01:37:43;;;;;;;80.10;46.10;;;;;;;1.09;79.22;101088.75;5067143;28;20029;-67
2021/03/25 01:40:17;;;;;;;82.35;45.60;;;;;;;1.12;79.92;101090.59;5051732;28;20029;-67
2021/03/25 01:42:44;;;;;;;77.03;42.93;;;;;;;1.13;79.40;101094.94;5050534;28;20033;-67
2021/03/25 01:45:28;;;;;;;66.43;39.17;;;;;;;1.12;79.37;101086.25;5049884;28;20033;-67
2021/03/25 01:47:53;;;;;;;78.07;43.23;;;;;;;1.13;79.16;101088.06;5051558;28;20090;-67
2021/03/25 01:50:19;;;;;;;104.10;51.90;;;;;;;1.16;79.44;101084.69;5051656;28;20441;-67
2021/03/25 01:53:15;;;;;;;74.67;42.13;;;;;;;1.14;79.80;101076.81;5050182;28;20380;-67
2021/03/25 01:55:48;;;;;;;78.43;45.00;;;;;;;1.12;79.56;101081.06;5044486;28;20112;-67
2021/03/25 01:58:40;;;;;;;75.80;41.50;;;;;;;1.09;79.76;101080.94;5051230;28;20044;-67
2021/03/25 02:01:31;;;;;;;77.70;44.67;;;;;;;1.11;79.93;101073.22;5050364;28;20395;-67
2021/03/25 02:04:20;;;;;;;75.13;42.97;;;;;;;1.12;79.99;101074.97;5066847;28;20095;-67
2021/03/25 02:07:05;;;;;;;82.63;44.13;;;;;;;1.13;79.88;101076.75;5041436;28;20053;-67
2021/03/25 02:09:39;;;;;;;;;;;;;;;1.08;81.07;101077.47;5039599;28;20036;-67
2021/03/25 02:12:55;;;;;;;81.60;42.13;;;;;;;1.09;80.13;101080.94;5051083;28;19913;-67
2021/03/25 02:15:47;;;;;;;70.97;40.63;;;;;;;1.07;80.27;101078.31;5041485;28;20044;-67
2021/03/25 02:18:46;;;;;;;96.30;49.87;;;;;;;1.07;81.45;101077.38;5049989;28;20032;-67
2021/03/25 02:21:32;;;;;;;67.83;38.47;;;;;;;1.11;80.24;101078.41;5051347;28;20112;-67
2021/03/25 02:24:13;;;;;;;70.30;38.60;;;;;;;1.13;80.68;101077.66;5049931;28;20064;-67
2021/03/25 02:27:08;;;;;;;74.70;44.07;;;;;;;1.09;80.97;101073.16;5043178;28;20032;-69
2021/03/25 02:29:47;;;;;;;70.00;41.00;;;;;;;1.06;79.59;101080.81;5059533;28;20116;-67
2021/03/25 02:32:21;;;;;;;74.43;40.70;;;;;;;1.06;80.84;101075.63;5049718;28;20039;-67
2021/03/25 02:34:50;;;;;;;70.77;41.50;;;;;;;1.04;80.73;101072.94;5049813;28;20538;-67
2021/03/25 02:37:27;;;;;;;85.40;46.23;;;;;;;1.04;80.65;101067.75;5049388;28;20036;-67
2021/03/25 02:40:11;;;;;;;78.03;43.27;;;;;;;1.05;79.87;101071.25;5049717;28;20028;-67
2021/03/25 02:42:48;;;;;;;63.67;36.77;;;;;;;1.04;80.55;101072.94;5060628;28;20124;-67
2021/03/25 02:45:20;;;;;;;75.28;42.40;;;;;;;1.02;80.15;101068.50;5049387;28;20035;-67
2021/03/25 02:47:49;;;;;;;88.77;47.67;;;;;;;1.05;80.28;101071.25;5050907;28;20086;-67
2021/03/25 02:50:33;;;;;;;78.53;44.13;;;;;;;1.08;81.35;101073.97;5049411;28;20040;-67
2021/03/25 02:53:18;;;;;;;65.23;38.37;;;;;;;1.07;80.32;101061.78;5045359;28;20029;-67
2021/03/25 02:55:44;;;;;;;68.67;40.63;;;;;;;1.10;80.15;101074.91;5039984;28;20528;-67
2021/03/25 02:58:18;;;;;;;;;;;;;;;1.07;80.88;101070.50;5050039;28;20560;-67
2021/03/25 03:01:07;;;;;;;63.93;36.50;;;;;;;1.12;80.90;101077.59;5049299;28;20371;-67
2021/03/25 03:03:37;;;;;;;72.07;38.87;;;;;;;1.15;80.26;101069.91;5043654;28;20090;-67
2021/03/25 03:06:40;;;;;;;67.97;38.53;;;;;;;1.20;81.13;101078.78;5035607;28;20450;-67
2021/03/25 03:09:20;;;;;;;67.20;40.00;;;;;;;1.19;80.40;101075.28;5052585;28;20028;-67
2021/03/25 03:11:53;;;;;;;65.47;38.50;;;;;;;1.19;80.22;101071.81;5053201;28;20052;-67
2021/03/25 03:14:26;;;;;;;66.17;39.97;;;;;;;1.18;80.79;101072.63;5054501;28;20064;-67
2021/03/25 03:16:57;;;;;;;65.93;38.23;;;;;;;1.18;80.99;101076.13;5052886;28;20031;-67
2021/03/25 03:19:33;;;;;;;65.50;41.20;;;;;;;1.19;80.57;101067.50;5054196;28;20030;-67
2021/03/25 03:22:06;;;;;;;59.30;36.47;;;;;;;1.20;80.74;101073.56;5053022;28;20036;-67
2021/03/25 03:24:56;;;;;;;61.63;37.23;;;;;;;1.20;81.07;101071.84;5053032;28;20061;-67
2021/03/25 03:27:44;;;;;;;65.13;37.23;;;;;;;1.23;80.83;101074.59;5046990;28;20040;-69
2021/03/25 03:30:18;;;;;;;63.23;36.73;;;;;;;1.27;81.59;101066.09;5069496;28;20080;-69
2021/03/25 03:33:05;;;;;;;56.93;35.57;;;;;;;1.30;80.96;101067.94;5052871;28;20083;-69
2021/03/25 03:35:38;;;;;;;62.90;36.67;;;;;;;1.31;80.37;101070.59;5040669;28;20037;-70
2021/03/25 03:38:14;;;;;;;61.83;35.60;;;;;;;1.34;81.08;101068.91;5066330;28;20475;-69
2021/03/25 03:40:53;;;;;;;67.20;38.60;;;;;;;1.36;80.40;101069.88;5069089;28;20037;-70
2021/03/25 03:43:19;;;;;;;60.63;35.43;;;;;;;1.33;80.29;101074.97;5069376;28;20398;-67
2021/03/25 03:46:15;;;;;;;60.53;35.00;;;;;;;1.33;81.42;101081.03;5052218;28;20075;-67
2021/03/25 03:49:05;;;;;;;54.67;32.30;;;;;;;1.40;81.75;101071.78;5040163;28;20094;-67
2021/03/25 03:51:45;;;;;;;54.77;32.53;;;;;;;1.52;81.51;101072.28;5057245;28;20033;-68
2021/03/25 03:54:11;;;;;;;51.60;32.00;;;;;;;1.61;81.01;101072.63;5072742;28;20020;-67
2021/03/25 03:57:02;;;;;;;50.27;30.17;;;;;;;1.74;81.40;101074.84;5059138;28;20039;-67
2021/03/25 03:59:55;;;;;;;55.60;30.83;;;;;;;1.84;80.67;101067.41;5045913;28;20056;-67
2021/03/25 04:02:41;;;;;;;51.23;30.23;;;;;;;1.88;80.28;101070.16;5058473;28;20463;-67
2021/03/25 04:05:33;;;;;;;50.27;30.70;;;;;;;1.92;80.00;101069.47;5044815;28;20045;-67
2021/03/25 04:08:37;;;;;;;50.63;27.37;;;;;;;1.90;80.24;101065.03;5056789;28;20044;-67
2021/03/25 04:11:25;;;;;;;50.40;29.92;;;;;;;1.88;79.84;101066.69;5052063;28;20028;-67
2021/03/25 04:14:05;;;;;;;51.27;29.30;;;;;;;1.84;80.45;101067.41;5052053;28;20086;-67
2021/03/25 04:16:40;;;;;;;50.60;29.70;;;;;;;1.86;80.91;101076.16;5044793;28;20025;-67
2021/03/25 04:19:21;;;;;;;52.10;30.20;;;;;;;1.89;80.48;101068.47;5068078;28;20029;-67
2021/03/25 04:22:13;;;;;;;49.33;30.75;;;;;;;1.96;80.67;101062.66;5057490;28;20051;-67
2021/03/25 04:24:49;;;;;;;47.30;28.52;;;;;;;2.02;80.96;101060.28;5055844;28;20108;-67
2021/03/25 04:27:41;;;;;;;47.38;28.00;;;;;;;2.06;80.00;101062.16;5052608;28;20048;-67
2021/03/25 04:30:16;;;;;;;47.75;28.58;;;;;;;2.04;79.20;101061.22;5052936;28;20086;-67
2021/03/25 04:32:43;;;;;;;49.33;28.70;;;;;;;2.00;79.64;101056.75;5052877;28;20067;-67
2021/03/25 04:35:09;;;;;;;46.20;27.52;;;;;;;1.99;79.53;101060.16;5050581;28;20025;-67
2021/03/25 04:37:34;;;;;;;52.75;29.33;;;;;;;1.97;79.61;101065.31;5052650;28;20150;-67
2021/03/25 04:40:06;;;;;;;48.55;29.40;;;;;;;1.96;80.04;101054.84;5052770;28;20381;-67
2021/03/25 04:42:32;;;;;;;44.60;28.60;;;;;;;1.96;79.61;101060.97;5045144;28;20474;-67
2021/03/25 04:45:13;;;;;;;54.83;29.90;;;;;;;1.97;79.96;101054.91;5052430;28;20037;-67
2021/03/25 04:47:46;;;;;;;42.42;26.67;;;;;;;1.97;79.20;101061.84;5045980;28;20032;-69
2021/03/25 04:50:30;;;;;;;46.90;28.08;;;;;;;1.94;79.18;101062.63;5052478;28;20483;-70
2021/03/25 04:53:05;;;;;;;47.10;27.70;;;;;;;1.92;78.97;101055.56;5052527;28;20049;-70
2021/03/25 04:55:35;;;;;;;55.00;32.25;;;;;;;1.94;78.80;101056.53;5043065;28;20029;-70
2021/03/25 04:58:06;;;;;;;46.85;30.13;;;;;;;1.90;78.66;101065.03;5052464;28;20586;-67
2021/03/25 05:00:38;;;;;;;52.08;30.40;;;;;;;1.76;78.60;101067.13;5044901;28;20041;-67
2021/03/25 05:03:06;;;;;;;49.72;28.33;;;;;;;1.64;78.61;101067.53;5052277;28;20047;-67
2021/03/25 05:05:32;;;;;;;46.63;27.73;;;;;;;1.57;79.44;101064.63;5051911;28;20052;-67
2021/03/25 05:08:11;;;;;;;48.33;27.83;;;;;;;1.56;79.99;101074.16;5052128;28;20474;-67
2021/03/25 05:10:44;;;;;;;41.17;25.75;;;;;;;1.59;79.78;101078.59;5045389;28;20048;-67
2021/03/25 05:13:41;;;;;;;41.80;26.83;;;;;;;1.58;79.63;101067.31;5052161;28;20040;-67
2021/03/25 05:16:16;;;;;;;45.83;27.77;;;;;;;1.64;78.89;101074.44;5028729;28;20055;-70
2021/03/25 05:18:54;;;;;;;50.47;30.07;;;;;;;1.68;79.46;101077.25;5051783;28;20032;-70
2021/03/25 05:21:28;;;;;;;50.40;29.05;;;;;;;1.66;79.08;101080.59;5052026;28;20068;-70
2021/03/25 05:24:02;;;;;;;48.30;28.10;;;;;;;1.66;79.30;101081.50;5052066;28;20029;-70
2021/03/25 05:26:40;;;;;;;52.77;29.97;;;;;;;1.69;78.62;101084.19;5043629;28;20449;-70
2021/03/25 05:29:07;;;;;;;51.88;29.88;;;;;;;1.73;79.01;101080.91;5051987;28;20041;-67
2021/03/25 05:31:35;;;;;;;49.72;28.27;;;;;;;1.80;78.56;101083.72;5051074;28;20041;-67
2021/03/25 05:34:03;;;;;;;47.17;28.30;;;;;;;1.87;78.87;101083.16;5051939;28;20055;-68
2021/03/25 05:36:30;;;;;;;49.67;30.10;;;;;;;1.92;78.21;101085.09;5043332;28;20048;-67
2021/03/25 05:38:56;;;;;;;46.30;28.85;;;;;;;1.99;78.32;101086.19;5046631;28;20029;-68
2021/03/25 05:41:28;;;;;;;50.40;29.10;;;;;;;2.08;78.59;101085.66;5051482;28;20079;-67
2021/03/25 05:44:11;;;;;;;44.50;27.45;;;;;;;2.17;78.63;101086.00;5051550;28;20033;-68
2021/03/25 05:47:13;;;;;;;50.13;30.52;;;;;;;2.23;77.91;101098.34;5044416;28;20404;-67
2021/03/25 05:49:59;;;;;;;45.75;27.95;;;;;;;2.29;77.40;101090.78;5044898;28;20039;-67
2021/03/25 05:53:07;;;;;;;46.33;27.65;;;;;;;2.35;77.64;101090.97;5051398;28;20052;-67
2021/03/25 05:56:05;;;;;;;52.83;32.22;;;;;;;2.46;77.06;101089.63;5033550;28;20515;-67
2021/03/25 05:58:53;;;;;;;56.00;30.60;;;;;;;2.57;77.15;101090.94;5043607;28;20037;-67
2021/03/25 06:01:47;;;;;;;51.08;29.67;;;;;;;2.59;77.20;101094.47;5050857;28;20051;-67
2021/03/25 06:04:24;;;;;;;47.33;27.00;;;;;;;2.63;76.77;101098.94;5051134;28;20513;-67
2021/03/25 06:07:09;;;;;;;42.40;25.73;;;;;;;2.67;76.91;101096.44;5051020;28;20116;-67
2021/03/25 06:10:12;;;;;;;45.95;26.35;;;;;;;2.75;77.19;101103.72;5044042;28;20167;-67
2021/03/25 06:12:56;;;;;;;47.88;28.45;;;;;;;2.89;77.04;101096.38;5039836;28;20033;-67
2021/03/25 06:16:03;;;;;;;44.55;26.60;;;;;;;3.03;77.39;101099.44;5050056;28;20033;-67
2021/03/25 06:18:50;;;;;;;45.05;27.00;;;;;;;3.14;76.73;101108.47;4997688;28;20044;-67
2021/03/25 06:21:25;;;;;;;43.28;27.02;;;;;;;3.24;77.12;101107.94;5050864;28;20037;-67
2021/03/25 06:24:25;;;;;;;49.00;27.55;;;;;;;3.39;76.51;101112.78;5051051;28;20140;-67
2021/03/25 06:27:15;;;;;;;45.33;29.50;;;;;;;3.57;76.90;101109.00;5061298;28;20388;-67
2021/03/25 06:29:48;;;;;;;53.53;32.50;;;;;;;3.70;76.21;101103.31;5044644;28;20040;-67
2021/03/25 06:32:18;;;;;;;49.17;31.67;;;;;;;3.82;76.39;101105.41;5051003;28;20033;-67
2021/03/25 06:35:03;;;;;;;46.53;30.23;;;;;;;3.93;76.18;101109.25;5050856;28;20025;-67
2021/03/25 06:37:41;;;;;;;46.53;27.63;;;;;;;4.06;76.17;101110.47;5043015;28;20487;-67
2021/03/25 06:40:26;;;;;;;40.78;26.60;;;;;;;4.14;76.34;101114.22;5050932;28;20033;-68
2021/03/25 06:43:04;;;;;;;41.50;26.85;;;;;;;4.28;75.78;101115.50;5053900;28;20144;-67
2021/03/25 06:45:41;;;;;;;46.60;29.25;;;;;;;4.43;75.81;101109.84;5046591;28;20090;-67
2021/03/25 06:48:30;;;;;;;44.45;27.05;;;;;;;4.56;75.52;101113.69;5055003;28;20391;-67
2021/03/25 06:50:55;;;;;;;46.35;26.02;;;;;;;4.70;75.50;101117.53;5054761;28;20033;-67
2021/03/25 06:53:27;;;;;;;39.08;25.30;;;;;;;4.84;75.21;101113.56;5054799;28;20542;-68
2021/03/25 06:56:13;;;;;;;44.22;25.92;;;;;;;4.97;74.59;101111.25;5054236;28;20044;-68
2021/03/25 06:58:49;;;;;;;41.08;24.75;;;;;;;5.12;74.29;101114.28;5048166;28;20036;-67
2021/03/25 07:01:29;;;;;;;36.53;22.98;;;;;;;5.27;74.27;101122.50;5054534;28;20041;-67
2021/03/25 07:03:57;;;;;;;40.38;25.52;;;;;;;5.42;74.21;101111.53;5054662;28;20554;-67
2021/03/25 07:06:26;;;;;;;34.97;21.38;;;;;;;5.58;73.05;101114.50;5054053;28;20536;-67
2021/03/25 07:08:54;;;;;;;37.30;23.83;;;;;;;5.74;73.25;101113.13;5054745;28;20063;-67
2021/03/25 07:11:20;;;;;;;37.85;23.52;;;;;;;5.89;72.86;101121.31;5054357;28;20063;-68
2021/03/25 07:13:55;;;;;;;34.58;21.58;;;;;;;6.00;72.15;101119.88;5054424;28;20503;-68
2021/03/25 07:16:21;;;;;;;35.35;22.80;;;;;;;6.13;72.01;101116.69;5053990;28;20037;-68
2021/03/25 07:18:58;;;;;;;37.85;23.35;;;;;;;6.26;71.28;101117.81;5054294;28;20039;-67
2021/03/25 07:21:35;;;;;;;42.13;26.60;;;;;;;6.37;70.75;101115.41;5054370;28;20040;-68
2021/03/25 07:24:05;;;;;;;40.67;26.08;;;;;;;6.58;70.63;101121.09;5054315;28;20041;-67
2021/03/25 07:26:43;;;;;;;39.70;24.42;;;;;;;6.68;69.63;101116.00;5045984;28;20041;-68
2021/03/25 07:29:11;;;;;;;33.75;22.23;;;;;;;6.81;68.92;101120.63;5054034;28;20068;-67
2021/03/25 07:31:56;;;;;;;39.38;25.48;;;;;;;6.93;67.85;101126.09;5054328;28;20083;-67
2021/03/25 07:34:29;;;;;;;35.55;24.55;;;;;;;7.07;67.42;101128.97;5053804;28;20079;-68
2021/03/25 07:36:56;;;;;;;41.25;26.27;;;;;;;7.25;67.58;101123.16;5053695;28;20479;-68
2021/03/25 07:39:25;;;;;;;39.30;23.98;;;;;;;7.38;66.85;101129.50;5053810;28;20029;-68
2021/03/25 07:41:53;;;;;;;34.72;21.45;;;;;;;7.54;67.02;101128.88;5053701;28;20496;-68
2021/03/25 07:44:24;;;;;;;33.35;23.30;;;;;;;7.69;66.04;101129.13;5053681;28;20078;-68
2021/03/25 07:46:52;;;;;;;35.85;22.45;;;;;;;7.85;66.07;101132.84;5053635;28;20112;-67
2021/03/25 07:49:23;;;;;;;36.03;21.92;;;;;;;8.03;65.46;101132.22;5053897;28;20037;-68
2021/03/25 07:51:56;;;;;;;33.35;22.00;;;;;;;8.24;65.18;101123.75;5053756;28;20045;-67
2021/03/25 07:54:27;;;;;;;;;;;;;;;8.45;63.85;101127.56;5053073;28;20073;-68
2021/03/25 07:57:12;;;;;;;34.97;22.38;;;;;;;8.74;64.07;101126.13;5053446;28;19946;-68
2021/03/25 07:59:51;;;;;;;32.88;21.20;;;;;;;8.95;61.62;101127.22;5042215;28;20071;-68
2021/03/25 08:02:28;;;;;;;34.25;20.90;;;;;;;9.16;61.80;101127.41;5053504;28;20047;-68
2021/03/25 08:04:55;;;;;;;32.78;19.50;;;;;;;9.28;60.16;101121.41;5053305;28;20037;-68
2021/03/25 08:07:21;;;;;;;33.20;21.10;;;;;;;9.33;59.96;101124.06;5053058;28;20041;-68
2021/03/25 08:09:56;;;;;;;28.98;19.48;;;;;;;9.36;59.93;101130.25;5053349;28;20091;-68
2021/03/25 08:12:32;;;;;;;33.28;20.65;;;;;;;9.47;59.57;101121.53;5053229;28;20032;-68
2021/03/25 08:15:16;;;;;;;40.30;21.42;;;;;;;9.54;58.88;101129.50;5052990;28;20091;-68
2021/03/25 08:17:44;;;;;;;31.25;21.35;;;;;;;9.59;59.47;101127.78;5046914;28;20029;-68
2021/03/25 08:20:39;;;;;;;30.13;20.48;;;;;;;9.61;59.79;101128.66;5053006;28;20029;-68
2021/03/25 08:23:47;;;;;;;30.25;20.58;;;;;;;9.61;59.45;101131.28;5053124;28;20127;-68
2021/03/25 08:26:24;;;;;;;31.77;20.83;;;;;;;9.50;59.99;101132.97;5052518;28;20472;-67
2021/03/25 08:29:02;;;;;;;34.78;22.48;;;;;;;9.48;60.29;101132.06;5052889;28;20256;-68
2021/03/25 08:31:33;;;;;;;31.15;21.23;;;;;;;9.53;60.47;101132.13;5044669;28;20076;-68
2021/03/25 08:34:06;;;;;;;29.60;19.80;;;;;;;9.62;59.75;101135.72;5052554;28;20048;-67
2021/03/25 08:36:50;;;;;;;34.20;21.08;;;;;;;9.73;59.53;101135.78;5044658;28;20099;-67
2021/03/25 08:39:44;;;;;;;29.48;19.38;;;;;;;9.99;58.99;101138.59;5052666;28;20044;-67
2021/03/25 08:42:18;;;;;;;29.02;19.40;;;;;;;10.26;57.40;101126.41;5052561;28;20041;-68
2021/03/25 08:44:50;;;;;;;30.10;18.95;;;;;;;10.44;57.99;101129.16;5052650;28;20029;-68
2021/03/25 08:47:15;;;;;;;;;;;;;;;10.43;58.23;101131.81;5052886;28;20041;-68
2021/03/25 08:49:57;;;;;;;31.25;18.70;;;;;;;10.60;56.65;101137.16;5052634;28;19952;-68
2021/03/25 08:52:25;;;;;;;31.80;20.40;;;;;;;10.66;57.50;101129.25;5051274;28;20044;-68
2021/03/25 08:55:04;;;;;;;28.95;19.08;;;;;;;10.80;56.47;101124.03;5052252;28;20287;-68
2021/03/25 08:57:35;;;;;;;30.30;18.55;;;;;;;10.81;55.72;101124.00;5044574;28;20068;-68
2021/03/25 09:00:07;;;;;;;29.77;19.92;;;;;;;10.86;56.21;101124.91;5052424;28;20044;-68
2021/03/25 09:02:41;;;;;;;29.40;19.35;;;;;;;11.06;56.54;101121.44;5044956;28;20429;-67
2021/03/25 09:05:16;;;;;;;31.25;17.58;;;;;;;11.21;56.23;101118.78;5050893;28;20063;-68
2021/03/25 09:07:42;;;;;;;29.70;18.92;;;;;;;11.28;55.87;101120.53;5099856;23;20034;-73
2021/03/25 09:10:50;;;;;;;30.75;19.17;;;;;;;11.31;55.53;101107.34;5041120;28;20041;-73
2021/03/25 09:13:31;;;;;;;33.25;20.48;;;;;;;11.33;54.36;101105.56;4990325;28;20034;-73
2021/03/25 09:16:10;;;;;;;30.23;18.80;;;;;;;11.38;54.34;101108.22;4990240;28;20421;-73
2021/03/25 09:18:42;;;;;;;29.85;19.52;;;;;;;11.39;55.10;101108.22;5013361;28;20053;-73
2021/03/25 09:21:17;;;;;;;31.40;19.77;;;;;;;11.48;54.87;101112.63;5026309;28;20030;-73
2021/03/25 09:24:02;;;;;;;28.42;17.85;;;;;;;11.50;54.52;101108.22;5025456;28;20038;-73
2021/03/25 09:26:27;;;;;;;29.45;18.58;;;;;;;11.56;55.25;101102.06;5028495;28;20496;-73
2021/03/25 09:28:52;;;;;;;30.40;19.08;;;;;;;11.68;55.21;101103.78;5024417;28;20128;-73
2021/03/25 09:31:18;;;;;;;32.67;20.08;;;;;;;11.74;53.86;101096.75;5023497;28;20404;-73
2021/03/25 09:33:49;;;;;;;31.00;19.88;;;;;;;11.87;53.47;101102.00;5023669;28;20038;-73
2021/03/25 09:36:17;;;;;;;33.67;20.48;;;;;;;11.91;53.49;101099.38;5021667;28;20095;-73
2021/03/25 09:38:45;;;;;;;30.63;18.88;;;;;;;12.02;53.64;101099.31;5020628;28;20124;-73
2021/03/25 09:41:18;;;;;;;33.88;22.77;;;;;;;12.07;53.83;101093.13;5028327;28;20033;-73
2021/03/25 09:43:45;;;;;;;32.53;21.02;;;;;;;12.18;53.51;101098.41;5020150;28;20044;-73
2021/03/25 09:46:25;;;;;;;37.30;24.13;;;;;;;12.21;53.58;101085.16;5024285;28;20048;-73
2021/03/25 09:48:52;;;;;;;31.83;20.15;;;;;;;12.37;53.74;101087.75;5026716;28;20139;-73
2021/03/25 09:51:22;;;;;;;29.63;19.30;;;;;;;12.44;52.95;101092.09;5021140;28;20163;-73
2021/03/25 09:53:52;;;;;;;32.05;20.00;;;;;;;12.49;52.64;101093.84;5021689;28;20037;-73
2021/03/25 09:56:24;;;;;;;33.13;20.52;;;;;;;12.56;52.46;101083.25;5027812;28;20048;-73
2021/03/25 09:58:49;;;;;;;34.20;20.30;;;;;;;12.67;52.50;101087.56;5022121;28;20034;-73
2021/03/25 10:01:53;;;;;;;36.10;22.42;;;;;;;12.73;52.49;101084.00;5034235;28;20060;-73
2021/03/25 10:04:35;;;;;;;38.92;24.58;;;;;;;12.87;52.20;101078.63;4992309;28;20046;-73
2021/03/25 10:07:20;;;;;;;38.10;23.42;;;;;;;13.02;52.02;101073.22;5018374;28;20503;-73
2021/03/25 10:09:49;;;;;;;42.00;25.85;;;;;;;13.12;52.25;101079.31;5024688;28;20058;-73
2021/03/25 10:12:43;;;;;;;43.53;26.05;;;;;;;13.30;51.99;101071.25;5038207;28;20041;-73
2021/03/25 10:18:04;;;;;;;35.15;20.25;;;;;;;13.42;50.13;101072.91;5019200;28;20091;-73
2021/03/25 10:20:57;;;;;;;34.20;20.00;;;;;;;13.44;49.25;101068.50;5029318;28;20508;-73
2021/03/25 10:23:27;;;;;;;38.00;22.50;;;;;;;13.49;50.67;101077.28;5026248;28;20536;-73
2021/03/25 10:26:07;;;;;;;36.42;21.52;;;;;;;13.56;50.63;101073.66;5019278;28;20172;-73
2021/03/25 10:28:36;;;;;;;30.85;19.48;;;;;;;13.62;49.67;101069.19;5026844;28;20042;-72
2021/03/25 10:31:07;;;;;;;36.03;21.95;;;;;;;13.70;50.08;101067.31;5019504;28;20041;-73
2021/03/25 10:33:35;;;;;;;50.15;28.65;;;;;;;13.87;50.99;101075.13;5019545;28;20128;-72
2021/03/25 10:36:04;;;;;;;34.65;23.25;;;;;;;14.02;49.85;101073.19;5019235;28;20025;-72
2021/03/25 10:38:41;;;;;;;36.13;21.42;;;;;;;14.06;49.29;101066.03;5027350;28;20073;-74
2021/03/25 10:41:16;;;;;;;33.20;20.17;;;;;;;14.21;48.75;101064.97;5020212;28;20400;-73
2021/03/25 10:43:41;;;;;;;31.15;20.67;;;;;;;14.37;48.93;101063.88;5038273;28;20038;-73
2021/03/25 10:46:08;;;;;;;31.17;18.23;;;;;;;14.51;48.22;101062.81;5021961;28;20080;-73
2021/03/25 10:48:41;;;;;;;34.50;21.85;;;;;;;14.57;47.99;101058.34;5019188;28;20033;-73
2021/03/25 10:51:17;;;;;;;35.55;19.50;;;;;;;14.67;47.81;101051.09;5019882;28;20037;-73
2021/03/25 10:53:45;;;;;;;40.88;22.17;;;;;;;14.72;47.56;101054.56;5022772;28;20033;-73
2021/03/25 10:56:24;;;;;;;31.88;19.40;;;;;;;14.85;46.78;101050.81;5021316;28;20041;-73
2021/03/25 10:59:20;;;;;;;31.77;19.13;;;;;;;14.92;45.96;101045.44;5019086;28;20030;-73
2021/03/25 11:01:51;;;;;;;33.10;18.92;;;;;;;15.02;45.87;101045.25;5025012;28;20042;-72
2021/03/25 11:04:21;;;;;;;32.92;20.70;;;;;;;15.11;46.24;101033.56;5019995;28;20033;-74
2021/03/25 11:06:46;;;;;;;33.20;20.05;;;;;;;15.22;46.18;101033.38;5020672;28;20427;-73
2021/03/25 11:09:25;;;;;;;37.60;20.77;;;;;;;15.33;45.79;101036.75;5025343;28;20197;-73
2021/03/25 11:11:54;;;;;;;34.00;19.50;;;;;;;15.44;45.88;101037.44;5023034;28;20052;-73
2021/03/25 11:14:31;;;;;;;33.28;20.20;;;;;;;15.30;44.18;101035.03;5017312;28;20117;-73
2021/03/25 11:17:08;;;;;;;34.58;19.88;;;;;;;15.39;44.36;101033.09;5030689;28;20029;-73
2021/03/25 11:19:34;;;;;;;32.22;19.83;;;;;;;15.40;44.89;101029.53;5026451;28;20117;-73
2021/03/25 11:22:00;;;;;;;33.53;19.52;;;;;;;15.45;45.09;101022.34;5018982;28;20091;-73
2021/03/25 11:24:32;;;;;;;35.40;19.73;;;;;;;15.44;44.35;101023.25;5021927;28;20424;-74
2021/03/25 11:27:02;;;;;;;37.25;20.83;;;;;;;15.23;44.95;101020.09;5021351;28;20048;-74
2021/03/25 11:29:35;;;;;;;32.08;20.75;;;;;;;15.43;45.07;101018.84;5027745;28;20033;-74
2021/03/25 11:32:12;;;;;;;36.00;22.75;;;;;;;15.60;45.27;101019.41;5026230;28;20120;-73
2021/03/25 11:34:39;;;;;;;36.33;21.35;;;;;;;15.78;45.91;101024.41;5029397;28;20049;-74
2021/03/25 11:37:29;;;;;;;35.45;21.08;;;;;;;15.93;44.43;101019.69;5022357;28;20366;-74
2021/03/25 11:40:22;;;;;;;29.58;20.23;;;;;;;16.12;44.80;101009.53;5025732;28;20030;-74
2021/03/25 11:43:03;;;;;;;32.08;20.90;;;;;;;16.35;43.16;101011.69;5027832;28;20042;-74
2021/03/25 11:45:40;;;;;;;31.77;19.33;;;;;;;16.44;42.77;101017.66;5037335;28;20045;-73
2021/03/25 11:48:29;;;;;;;29.60;18.48;;;;;;;16.54;42.19;101006.81;5022666;28;20072;-73
2021/03/25 11:50:57;;;;;;;32.42;19.90;;;;;;;16.61;42.14;101000.41;5025579;28;20454;-74
2021/03/25 11:53:25;;;;;;;33.05;19.95;;;;;;;16.76;41.61;101007.19;5022684;28;20534;-73
2021/03/25 11:55:52;;;;;;;32.22;19.85;;;;;;;16.79;40.94;101002.69;5023885;28;20034;-74
2021/03/25 11:58:21;;;;;;;30.92;18.77;;;;;;;16.84;41.27;101003.44;5025300;28;20040;-76
2021/03/25 12:01:03;;;;;;;32.17;19.38;;;;;;;16.72;41.29;100995.72;5025316;28;20524;-74